Time,TemperatureF,DewpointF,PressureIn,WindDirection,WindDirectionDegrees,WindSpeedMPH,WindSpeedGustMPH,Humidity,HourlyPrecipIn,Conditions,Clouds,dailyrainin,SoftwareType,DateUTC
2013-05-14 00:09:00,76.2,73.0,29.96,SE,131,0.0,1.0,90,0.00,,,0.02,weatherlink.com 1.10,2013-05-14 04:09:00,
2013-05-14 00:24:00,76.0,73.0,29.96,SE,131,0.0,0.0,90,0.00,,,0.02,weatherlink.com 1.10,2013-05-14 04:24:00,
2013-05-14 00:39:00,76.0,73.0,29.95,SE,134,1.0,2.0,90,0.00,,,0.02,weatherlink.com 1.10,2013-05-14 04:39:00,
2013-05-14 00:54:00,75.7,73.0,29.95,SE,136,0.0,1.0,90,0.00,,,0.02,weatherlink.com 1.10,2013-05-14 04:54:00,
2013-05-14 01:09:00,75.7,73.0,29.95,ESE,122,0.0,2.0,90,0.00,,,0.02,weatherlink.com 1.10,2013-05-14 05:09:00,
2013-05-14 01:24:00,75.5,73.0,29.94,SE,131,2.0,2.0,90,0.00,,,0.02,weatherlink.com 1.10,2013-05-14 05:24:00,
2013-05-14 01:39:00,75.3,72.0,29.94,SE,128,0.0,2.0,90,0.00,,,0.02,weatherlink.com 1.10,2013-05-14 05:39:00,
2013-05-14 01:54:00,75.2,72.0,29.94,SE,128,0.0,1.0,90,0.00,,,0.02,weatherlink.com 1.10,2013-05-14 05:54:00,
2013-05-14 02:09:00,75.2,73.0,29.94,SE,128,0.0,1.0,91,0.00,,,0.02,weatherlink.com 1.10,2013-05-14 06:09:00,
2013-05-14 02:24:00,75.2,73.0,29.93,SE,128,0.0,0.0,91,0.00,,,0.02,weatherlink.com 1.10,2013-05-14 06:24:00,
2013-05-14 02:39:00,75.0,72.0,29.93,SE,129,0.0,1.0,91,0.00,,,0.02,weatherlink.com 1.10,2013-05-14 06:39:00,
2013-05-14 02:54:00,74.6,72.0,29.93,SE,127,0.0,0.0,92,0.00,,,0.02,weatherlink.com 1.10,2013-05-14 06:54:00,
2013-05-14 03:09:00,74.4,72.0,29.93,SE,127,0.0,1.0,92,0.00,,,0.02,weatherlink.com 1.10,2013-05-14 07:09:00,
2013-05-14 03:24:00,74.3,72.0,29.92,SE,127,0.0,0.0,92,0.00,,,0.02,weatherlink.com 1.10,2013-05-14 07:24:00,
2013-05-14 03:39:00,74.3,72.0,29.93,SE,127,0.0,0.0,92,0.00,,,0.02,weatherlink.com 1.10,2013-05-14 07:39:00,
2013-05-14 03:54:00,74.2,72.0,29.93,WNW,293,0.0,1.0,93,0.00,,,0.02,weatherlink.com 1.10,2013-05-14 07:54:00,
2013-05-14 04:09:00,74.4,72.0,29.93,South,170,0.0,1.0,93,0.00,,,0.02,weatherlink.com 1.10,2013-05-14 08:09:00,
2013-05-14 04:24:00,74.2,72.0,29.93,South,170,0.0,1.0,93,0.00,,,0.02,weatherlink.com 1.10,2013-05-14 08:24:00,
2013-05-14 04:39:00,74.0,72.0,29.93,SW,221,0.0,1.0,93,0.00,,,0.02,weatherlink.com 1.10,2013-05-14 08:39:00,
2013-05-14 04:54:00,73.8,72.0,29.93,SW,221,0.0,1.0,93,0.00,,,0.02,weatherlink.com 1.10,2013-05-14 08:54:00,
2013-05-14 05:09:00,73.4,71.0,29.93,SW,221,0.0,1.0,93,0.00,,,0.02,weatherlink.com 1.10,2013-05-14 09:09:00,
2013-05-14 05:24:00,73.3,72.0,29.94,SSE,160,0.0,1.0,94,0.00,,,0.02,weatherlink.com 1.10,2013-05-14 09:24:00,
2013-05-14 05:39:00,73.2,71.0,29.94,SSE,159,0.0,1.0,93,0.00,,,0.02,weatherlink.com 1.10,2013-05-14 09:39:00,
2013-05-14 05:54:00,73.1,71.0,29.95,SSE,159,0.0,0.0,94,0.00,,,0.02,weatherlink.com 1.10,2013-05-14 09:54:00,
2013-05-14 06:09:00,73.0,71.0,29.95,SSE,156,0.0,1.0,94,0.00,,,0.02,weatherlink.com 1.10,2013-05-14 10:09:00,
2013-05-14 06:24:00,73.2,71.0,29.96,SSE,157,0.0,1.0,94,0.00,,,0.02,weatherlink.com 1.10,2013-05-14 10:24:00,
2013-05-14 06:39:00,73.4,72.0,29.96,SSE,156,0.0,0.0,94,0.00,,,0.02,weatherlink.com 1.10,2013-05-14 10:39:00,
2013-05-14 06:54:00,73.7,72.0,29.96,SE,131,0.0,1.0,93,0.00,,,0.00,weatherlink.com 1.10,2013-05-14 10:54:00,
2013-05-14 07:09:00,76.4,74.0,29.96,SE,131,0.0,1.0,91,0.00,,,0.00,weatherlink.com 1.10,2013-05-14 11:09:00,
2013-05-14 07:24:00,79.9,74.0,29.97,SE,131,0.0,1.0,82,0.00,,,0.00,weatherlink.com 1.10,2013-05-14 11:24:00,
2013-05-14 07:39:00,81.5,74.0,29.97,SE,136,1.0,2.0,79,0.00,,,0.00,weatherlink.com 1.10,2013-05-14 11:39:00,
2013-05-14 07:54:00,83.0,75.0,29.97,SE,135,0.0,1.0,77,0.00,,,0.00,weatherlink.com 1.10,2013-05-14 11:54:00,
2013-05-14 08:09:00,83.2,76.0,29.97,ESE,104,0.0,3.0,78,0.00,,,0.00,weatherlink.com 1.10,2013-05-14 12:09:00,
2013-05-14 08:25:00,83.4,76.0,29.97,East,86,6.0,8.0,79,0.00,,,0.00,weatherlink.com 1.10,2013-05-14 12:25:00,
2013-05-14 08:40:00,83.6,76.0,29.97,South,169,0.0,5.0,78,0.00,,,0.00,weatherlink.com 1.10,2013-05-14 12:40:00,
2013-05-14 08:55:00,84.2,76.0,29.97,East,97,0.0,1.0,76,0.00,,,0.00,weatherlink.com 1.10,2013-05-14 12:55:00,
2013-05-14 09:10:00,84.8,76.0,29.97,ENE,70,1.0,3.0,74,0.00,,,0.00,weatherlink.com 1.10,2013-05-14 13:10:00,
2013-05-14 09:25:00,84.1,76.0,29.98,East,84,0.0,6.0,76,0.00,,,0.00,weatherlink.com 1.10,2013-05-14 13:25:00,
2013-05-14 09:40:00,84.1,77.0,29.98,ENE,58,6.0,7.0,78,0.00,,,0.00,weatherlink.com 1.10,2013-05-14 13:40:00,
2013-05-14 09:55:00,84.0,76.0,29.98,East,80,2.0,8.0,77,0.00,,,0.00,weatherlink.com 1.10,2013-05-14 13:55:00,
2013-05-14 10:10:00,84.1,76.0,29.98,ENE,63,3.0,8.0,77,0.00,,,0.00,weatherlink.com 1.10,2013-05-14 14:10:00,
2013-05-14 10:25:00,85.4,76.0,29.97,ENE,57,3.0,7.0,74,0.00,,,0.00,weatherlink.com 1.10,2013-05-14 14:25:00,
2013-05-14 10:40:00,85.2,76.0,29.97,NE,39,3.0,8.0,74,0.00,,,0.00,weatherlink.com 1.10,2013-05-14 14:40:00,
2013-05-14 10:55:00,85.3,76.0,29.96,NE,46,6.0,10.0,73,0.00,,,0.00,weatherlink.com 1.10,2013-05-14 14:55:00,
2013-05-14 11:10:00,86.6,75.0,29.96,SE,136,0.0,4.0,68,0.00,,,0.00,weatherlink.com 1.10,2013-05-14 15:10:00,
2013-05-14 11:25:00,86.5,71.0,29.97,SE,127,2.0,7.0,61,0.00,,,0.00,weatherlink.com 1.10,2013-05-14 15:25:00,
2013-05-14 11:40:00,89.3,73.0,29.97,SE,127,0.0,2.0,59,0.00,,,0.00,weatherlink.com 1.10,2013-05-14 15:40:00,
2013-05-14 12:10:00,87.9,75.0,29.96,SW,236,1.0,5.0,65,0.00,,,0.00,weatherlink.com 1.10,2013-05-14 16:10:00,
2013-05-14 12:25:00,89.1,74.0,29.96,ESE,102,0.0,3.0,62,0.00,,,0.00,weatherlink.com 1.10,2013-05-14 16:25:00,
2013-05-14 12:40:00,89.5,74.0,29.95,South,186,1.0,4.0,61,0.00,,,0.00,weatherlink.com 1.10,2013-05-14 16:40:00,
2013-05-14 12:55:00,89.5,74.0,29.94,SE,142,1.0,6.0,61,0.00,,,0.00,weatherlink.com 1.10,2013-05-14 16:55:00,
2013-05-14 13:10:00,91.0,74.0,29.93,ESE,114,1.0,2.0,58,0.00,,,0.00,weatherlink.com 1.10,2013-05-14 17:10:00,
2013-05-14 13:25:00,89.9,73.0,29.93,ENE,75,0.0,3.0,58,0.00,,,0.00,weatherlink.com 1.10,2013-05-14 17:25:00,
2013-05-14 13:40:00,89.0,73.0,29.93,ENE,60,4.0,7.0,60,0.00,,,0.00,weatherlink.com 1.10,2013-05-14 17:40:00,
2013-05-14 13:55:00,87.8,73.0,29.92,NNE,20,2.0,8.0,62,0.00,,,0.00,weatherlink.com 1.10,2013-05-14 17:55:00,
2013-05-14 14:10:00,88.3,73.0,29.92,NNE,15,2.0,6.0,61,0.00,,,0.00,weatherlink.com 1.10,2013-05-14 18:10:00,
2013-05-14 14:25:00,88.1,73.0,29.91,East,89,1.0,7.0,62,0.00,,,0.00,weatherlink.com 1.10,2013-05-14 18:25:00,
2013-05-14 14:40:00,87.5,75.0,29.91,ENE,77,2.0,8.0,66,0.00,,,0.00,weatherlink.com 1.10,2013-05-14 18:40:00,
2013-05-14 14:55:00,88.8,74.0,29.91,South,181,3.0,5.0,61,0.00,,,0.00,weatherlink.com 1.10,2013-05-14 18:55:00,
2013-05-14 15:11:00,88.7,74.0,29.90,ESE,121,1.0,6.0,63,0.00,,,0.00,weatherlink.com 1.10,2013-05-14 19:11:00,
2013-05-14 15:26:00,90.9,74.0,29.90,ESE,121,2.0,4.0,58,0.00,,,0.00,weatherlink.com 1.10,2013-05-14 19:26:00,
2013-05-14 15:41:00,90.5,75.0,29.89,SE,127,3.0,7.0,60,0.00,,,0.00,weatherlink.com 1.10,2013-05-14 19:41:00,
2013-05-14 15:56:00,88.4,73.0,29.88,East,82,5.0,9.0,61,0.00,,,0.00,weatherlink.com 1.10,2013-05-14 19:56:00,
2013-05-14 16:11:00,87.5,73.0,29.89,East,79,8.0,8.0,63,0.00,,,0.00,weatherlink.com 1.10,2013-05-14 20:11:00,
2013-05-14 16:26:00,87.7,73.0,29.88,NE,37,4.0,9.0,61,0.00,,,0.00,weatherlink.com 1.10,2013-05-14 20:26:00,
2013-05-14 16:41:00,87.6,73.0,29.88,NE,43,3.0,6.0,62,0.00,,,0.00,weatherlink.com 1.10,2013-05-14 20:41:00,
2013-05-14 16:56:00,87.4,74.0,29.88,North,360,1.0,3.0,64,0.00,,,0.00,weatherlink.com 1.10,2013-05-14 20:56:00,
2013-05-14 17:11:00,87.7,74.0,29.88,WNW,288,1.0,2.0,63,0.00,,,0.00,weatherlink.com 1.10,2013-05-14 21:11:00,
2013-05-14 17:26:00,88.7,74.0,29.89,SSE,147,1.0,2.0,62,0.00,,,0.00,weatherlink.com 1.10,2013-05-14 21:26:00,
2013-05-14 17:41:00,89.9,74.0,29.89,East,91,1.0,3.0,59,0.00,,,0.00,weatherlink.com 1.10,2013-05-14 21:41:00,
2013-05-14 17:56:00,86.4,74.0,29.90,East,79,5.0,7.0,67,0.00,,,0.00,weatherlink.com 1.10,2013-05-14 21:56:00,
2013-05-14 18:11:00,85.3,75.0,29.90,East,85,2.0,5.0,71,0.00,,,0.00,weatherlink.com 1.10,2013-05-14 22:11:00,
2013-05-14 18:26:00,84.2,76.0,29.91,East,92,2.0,5.0,75,0.00,,,0.00,weatherlink.com 1.10,2013-05-14 22:26:00,
2013-05-14 18:41:00,83.8,76.0,29.91,ENE,73,1.0,6.0,77,0.00,,,0.00,weatherlink.com 1.10,2013-05-14 22:41:00,
2013-05-14 18:56:00,82.8,76.0,29.92,ENE,72,3.0,5.0,80,0.00,,,0.00,weatherlink.com 1.10,2013-05-14 22:56:00,
2013-05-14 19:11:00,82.3,76.0,29.92,East,96,3.0,6.0,81,0.00,,,0.00,weatherlink.com 1.10,2013-05-14 23:11:00,
2013-05-14 19:26:00,82.5,76.0,29.92,ESE,102,2.0,5.0,81,0.00,,,0.00,weatherlink.com 1.10,2013-05-14 23:26:00,
2013-05-14 19:41:00,82.3,76.0,29.93,ESE,110,4.0,4.0,82,0.00,,,0.00,weatherlink.com 1.10,2013-05-14 23:41:00,
2013-05-14 19:56:00,82.1,76.0,29.93,East,92,2.0,5.0,82,0.00,,,0.00,weatherlink.com 1.10,2013-05-14 23:56:00,
2013-05-14 20:11:00,81.9,76.0,29.93,East,98,1.0,3.0,83,0.00,,,0.00,weatherlink.com 1.10,2013-05-15 00:11:00,
2013-05-14 20:26:00,81.7,76.0,29.94,ESE,107,2.0,4.0,83,0.00,,,0.00,weatherlink.com 1.10,2013-05-15 00:26:00,
2013-05-14 20:41:00,81.7,76.0,29.94,East,80,0.0,4.0,83,0.00,,,0.00,weatherlink.com 1.10,2013-05-15 00:41:00,
2013-05-14 20:56:00,81.4,76.0,29.94,East,100,2.0,3.0,83,0.00,,,0.00,weatherlink.com 1.10,2013-05-15 00:56:00,
2013-05-14 21:11:00,81.4,76.0,29.94,ESE,103,2.0,3.0,83,0.00,,,0.00,weatherlink.com 1.10,2013-05-15 01:11:00,
2013-05-14 21:26:00,81.3,76.0,29.95,ESE,114,1.0,2.0,83,0.00,,,0.00,weatherlink.com 1.10,2013-05-15 01:26:00,
2013-05-14 21:41:00,80.8,76.0,29.95,ESE,107,0.0,2.0,84,0.00,,,0.00,weatherlink.com 1.10,2013-05-15 01:41:00,
2013-05-14 21:56:00,80.4,76.0,29.95,East,101,0.0,3.0,85,0.00,,,0.00,weatherlink.com 1.10,2013-05-15 01:56:00,
2013-05-14 22:11:00,80.0,76.0,29.96,NE,56,2.0,3.0,86,0.00,,,0.00,weatherlink.com 1.10,2013-05-15 02:11:00,
2013-05-14 22:26:00,79.6,76.0,29.96,NNE,30,2.0,3.0,87,0.00,,,0.00,weatherlink.com 1.10,2013-05-15 02:26:00,
2013-05-14 22:41:00,79.6,76.0,29.96,ESE,110,0.0,2.0,87,0.00,,,0.00,weatherlink.com 1.10,2013-05-15 02:41:00,
2013-05-14 22:56:00,79.5,75.0,29.96,SE,137,1.0,2.0,87,0.00,,,0.00,weatherlink.com 1.10,2013-05-15 02:56:00,
2013-05-14 23:11:00,79.2,75.0,29.95,ESE,114,1.0,2.0,87,0.00,,,0.00,weatherlink.com 1.10,2013-05-15 03:11:00,
2013-05-14 23:26:00,78.8,75.0,29.95,ESE,120,1.0,3.0,88,0.00,,,0.00,weatherlink.com 1.10,2013-05-15 03:26:00,
2013-05-14 23:41:00,78.4,75.0,29.95,SE,139,0.0,4.0,88,0.00,,,0.00,weatherlink.com 1.10,2013-05-15 03:41:00,
2013-05-14 23:56:00,78.1,75.0,29.95,SE,135,0.0,1.0,89,0.00,,,0.00,weatherlink.com 1.10,2013-05-15 03:56:00,